sensor_id;sensor_type;location;lat;lon;timestamp;P1;durP1;ratioP1;P2;durP2;ratioP2
19414;SDS011;9843;48.882;12.592;2023-04-20T00:01:14;10.10;;;8.33;;
19414;SDS011;9843;48.882;12.592;2023-04-20T00:03:41;13.17;;;9.93;;
19414;SDS011;9843;48.882;12.592;2023-04-20T00:06:08;10.80;;;9.43;;
19414;SDS011;9843;48.882;12.592;2023-04-20T00:08:35;10.07;;;9.10;;
19414;SDS011;9843;48.882;12.592;2023-04-20T00:11:02;8.53;;;7.83;;
19414;SDS011;9843;48.882;12.592;2023-04-20T00:13:30;12.97;;;11.30;;
19414;SDS011;9843;48.882;12.592;2023-04-20T00:15:57;8.90;;;8.00;;
19414;SDS011;9843;48.882;12.592;2023-04-20T00:18:24;13.13;;;11.80;;
19414;SDS011;9843;48.882;12.592;2023-04-20T00:20:51;10.53;;;9.47;;
19414;SDS011;9843;48.882;12.592;2023-04-20T00:23:18;10.80;;;9.80;;
19414;SDS011;9843;48.882;12.592;2023-04-20T00:25:46;11.50;;;9.63;;
19414;SDS011;9843;48.882;12.592;2023-04-20T00:28:13;13.83;;;10.87;;
19414;SDS011;9843;48.882;12.592;2023-04-20T00:30:42;14.63;;;10.67;;
19414;SDS011;9843;48.882;12.592;2023-04-20T00:33:09;11.23;;;10.20;;
19414;SDS011;9843;48.882;12.592;2023-04-20T00:35:36;13.57;;;9.30;;
19414;SDS011;9843;48.882;12.592;2023-04-20T00:38:03;12.00;;;10.87;;
19414;SDS011;9843;48.882;12.592;2023-04-20T00:40:30;11.00;;;9.97;;
19414;SDS011;9843;48.882;12.592;2023-04-20T00:42:57;11.07;;;9.80;;
19414;SDS011;9843;48.882;12.592;2023-04-20T00:45:34;9.63;;;8.80;;
19414;SDS011;9843;48.882;12.592;2023-04-20T00:48:02;10.80;;;9.77;;
19414;SDS011;9843;48.882;12.592;2023-04-20T00:50:30;11.03;;;9.30;;
19414;SDS011;9843;48.882;12.592;2023-04-20T00:52:57;10.07;;;8.50;;
19414;SDS011;9843;48.882;12.592;2023-04-20T00:55:24;9.63;;;8.70;;
19414;SDS011;9843;48.882;12.592;2023-04-20T00:57:52;11.83;;;10.60;;
19414;SDS011;9843;48.882;12.592;2023-04-20T01:00:19;11.17;;;10.07;;
19414;SDS011;9843;48.882;12.592;2023-04-20T01:02:46;10.40;;;9.13;;
19414;SDS011;9843;48.882;12.592;2023-04-20T01:05:14;9.40;;;8.53;;
19414;SDS011;9843;48.882;12.592;2023-04-20T01:07:41;10.67;;;9.60;;
19414;SDS011;9843;48.882;12.592;2023-04-20T01:10:09;14.20;;;11.37;;
19414;SDS011;9843;48.882;12.592;2023-04-20T01:12:36;11.77;;;10.63;;
19414;SDS011;9843;48.882;12.592;2023-04-20T01:15:03;11.90;;;9.97;;
19414;SDS011;9843;48.882;12.592;2023-04-20T01:17:31;12.57;;;9.97;;
19414;SDS011;9843;48.882;12.592;2023-04-20T01:19:58;12.63;;;11.23;;
19414;SDS011;9843;48.882;12.592;2023-04-20T01:22:27;11.60;;;10.40;;
19414;SDS011;9843;48.882;12.592;2023-04-20T01:24:54;11.57;;;10.47;;
19414;SDS011;9843;48.882;12.592;2023-04-20T01:27:21;20.20;;;11.27;;
19414;SDS011;9843;48.882;12.592;2023-04-20T01:29:48;11.77;;;10.77;;
19414;SDS011;9843;48.882;12.592;2023-04-20T01:32:15;11.67;;;10.57;;
19414;SDS011;9843;48.882;12.592;2023-04-20T01:34:42;28.67;;;13.53;;
19414;SDS011;9843;48.882;12.592;2023-04-20T01:37:09;14.80;;;11.17;;
19414;SDS011;9843;48.882;12.592;2023-04-20T01:39:38;15.53;;;11.03;;
19414;SDS011;9843;48.882;12.592;2023-04-20T01:42:05;12.50;;;11.07;;
19414;SDS011;9843;48.882;12.592;2023-04-20T01:44:32;13.03;;;11.53;;
19414;SDS011;9843;48.882;12.592;2023-04-20T01:46:59;14.83;;;11.90;;
19414;SDS011;9843;48.882;12.592;2023-04-20T01:49:26;13.20;;;12.00;;
19414;SDS011;9843;48.882;12.592;2023-04-20T01:51:53;13.97;;;12.67;;
19414;SDS011;9843;48.882;12.592;2023-04-20T01:54:21;14.20;;;12.60;;
19414;SDS011;9843;48.882;12.592;2023-04-20T01:56:49;15.43;;;13.87;;
19414;SDS011;9843;48.882;12.592;2023-04-20T01:59:16;13.20;;;11.93;;
19414;SDS011;9843;48.882;12.592;2023-04-20T02:01:43;16.33;;;12.40;;
19414;SDS011;9843;48.882;12.592;2023-04-20T02:04:10;14.37;;;12.90;;
19414;SDS011;9843;48.882;12.592;2023-04-20T02:06:37;14.50;;;13.10;;
19414;SDS011;9843;48.882;12.592;2023-04-20T02:09:04;15.40;;;13.33;;
19414;SDS011;9843;48.882;12.592;2023-04-20T02:11:33;14.93;;;13.13;;
19414;SDS011;9843;48.882;12.592;2023-04-20T02:14:01;16.43;;;13.23;;
19414;SDS011;9843;48.882;12.592;2023-04-20T02:16:28;17.17;;;15.47;;
19414;SDS011;9843;48.882;12.592;2023-04-20T02:18:55;15.67;;;14.10;;
19414;SDS011;9843;48.882;12.592;2023-04-20T02:21:22;15.93;;;14.30;;
19414;SDS011;9843;48.882;12.592;2023-04-20T02:23:49;23.07;;;16.53;;
19414;SDS011;9843;48.882;12.592;2023-04-20T02:26:16;15.27;;;13.30;;
19414;SDS011;9843;48.882;12.592;2023-04-20T02:28:43;18.67;;;16.40;;
19414;SDS011;9843;48.882;12.592;2023-04-20T02:31:12;16.73;;;14.83;;
19414;SDS011;9843;48.882;12.592;2023-04-20T02:33:39;29.13;;;14.93;;
19414;SDS011;9843;48.882;12.592;2023-04-20T02:36:06;17.07;;;15.23;;
19414;SDS011;9843;48.882;12.592;2023-04-20T02:38:33;15.87;;;14.27;;
19414;SDS011;9843;48.882;12.592;2023-04-20T02:41:01;16.93;;;14.10;;
19414;SDS011;9843;48.882;12.592;2023-04-20T02:43:29;15.27;;;12.47;;
19414;SDS011;9843;48.882;12.592;2023-04-20T02:45:58;15.83;;;14.07;;
19414;SDS011;9843;48.882;12.592;2023-04-20T02:48:26;14.03;;;12.67;;
19414;SDS011;9843;48.882;12.592;2023-04-20T02:50:53;16.77;;;14.10;;
19414;SDS011;9843;48.882;12.592;2023-04-20T02:53:21;17.40;;;14.70;;
19414;SDS011;9843;48.882;12.592;2023-04-20T02:55:48;14.77;;;12.80;;
19414;SDS011;9843;48.882;12.592;2023-04-20T02:58:15;17.00;;;14.87;;
19414;SDS011;9843;48.882;12.592;2023-04-20T03:00:42;17.33;;;14.17;;
19414;SDS011;9843;48.882;12.592;2023-04-20T03:03:09;17.27;;;15.40;;
19414;SDS011;9843;48.882;12.592;2023-04-20T03:05:38;16.90;;;15.20;;
19414;SDS011;9843;48.882;12.592;2023-04-20T03:08:05;14.53;;;13.07;;
19414;SDS011;9843;48.882;12.592;2023-04-20T03:10:32;16.17;;;14.37;;
19414;SDS011;9843;48.882;12.592;2023-04-20T03:12:59;17.20;;;14.63;;
19414;SDS011;9843;48.882;12.592;2023-04-20T03:15:26;17.60;;;14.17;;
19414;SDS011;9843;48.882;12.592;2023-04-20T03:17:53;16.93;;;13.23;;
19414;SDS011;9843;48.882;12.592;2023-04-20T03:20:20;15.57;;;13.47;;
19414;SDS011;9843;48.882;12.592;2023-04-20T03:22:49;15.30;;;13.70;;
19414;SDS011;9843;48.882;12.592;2023-04-20T03:25:16;16.07;;;14.57;;
19414;SDS011;9843;48.882;12.592;2023-04-20T03:27:44;15.10;;;13.27;;
19414;SDS011;9843;48.882;12.592;2023-04-20T03:30:11;13.97;;;12.47;;
19414;SDS011;9843;48.882;12.592;2023-04-20T03:32:38;16.23;;;14.07;;
19414;SDS011;9843;48.882;12.592;2023-04-20T03:35:06;14.90;;;13.17;;
19414;SDS011;9843;48.882;12.592;2023-04-20T03:37:34;13.53;;;12.13;;
19414;SDS011;9843;48.882;12.592;2023-04-20T03:40:03;13.03;;;11.70;;
19414;SDS011;9843;48.882;12.592;2023-04-20T03:42:31;13.93;;;11.93;;
19414;SDS011;9843;48.882;12.592;2023-04-20T03:44:58;14.63;;;13.13;;
19414;SDS011;9843;48.882;12.592;2023-04-20T03:47:25;15.90;;;14.20;;
19414;SDS011;9843;48.882;12.592;2023-04-20T03:49:52;14.37;;;12.87;;
19414;SDS011;9843;48.882;12.592;2023-04-20T03:52:19;14.37;;;12.13;;
19414;SDS011;9843;48.882;12.592;2023-04-20T03:54:46;14.50;;;11.17;;
19414;SDS011;9843;48.882;12.592;2023-04-20T03:57:14;16.90;;;13.93;;
19414;SDS011;9843;48.882;12.592;2023-04-20T03:59:41;16.77;;;12.20;;
19414;SDS011;9843;48.882;12.592;2023-04-20T04:02:08;12.40;;;11.23;;
19414;SDS011;9843;48.882;12.592;2023-04-20T04:04:37;14.30;;;12.80;;
19414;SDS011;9843;48.882;12.592;2023-04-20T04:07:04;12.43;;;11.27;;
19414;SDS011;9843;48.882;12.592;2023-04-20T04:09:31;13.23;;;11.77;;
19414;SDS011;9843;48.882;12.592;2023-04-20T04:11:58;18.37;;;14.73;;
19414;SDS011;9843;48.882;12.592;2023-04-20T04:14:27;13.67;;;12.37;;
19414;SDS011;9843;48.882;12.592;2023-04-20T04:16:55;18.97;;;12.80;;
19414;SDS011;9843;48.882;12.592;2023-04-20T04:19:22;14.17;;;11.40;;
19414;SDS011;9843;48.882;12.592;2023-04-20T04:21:49;13.10;;;11.23;;
19414;SDS011;9843;48.882;12.592;2023-04-20T04:24:16;13.13;;;11.83;;
19414;SDS011;9843;48.882;12.592;2023-04-20T04:26:43;15.57;;;12.93;;
19414;SDS011;9843;48.882;12.592;2023-04-20T04:29:10;13.43;;;11.97;;
19414;SDS011;9843;48.882;12.592;2023-04-20T04:31:39;14.97;;;12.07;;
19414;SDS011;9843;48.882;12.592;2023-04-20T04:34:06;17.77;;;12.80;;
19414;SDS011;9843;48.882;12.592;2023-04-20T04:36:33;20.97;;;13.50;;
19414;SDS011;9843;48.882;12.592;2023-04-20T04:39:00;12.37;;;10.90;;
19414;SDS011;9843;48.882;12.592;2023-04-20T04:41:27;16.17;;;11.87;;
19414;SDS011;9843;48.882;12.592;2023-04-20T04:43:54;21.97;;;12.07;;
19414;SDS011;9843;48.882;12.592;2023-04-20T04:46:23;15.87;;;14.27;;
19414;SDS011;9843;48.882;12.592;2023-04-20T04:48:52;14.63;;;13.07;;
19414;SDS011;9843;48.882;12.592;2023-04-20T04:51:20;13.80;;;12.00;;
19414;SDS011;9843;48.882;12.592;2023-04-20T04:53:47;13.67;;;12.07;;
19414;SDS011;9843;48.882;12.592;2023-04-20T04:56:14;13.93;;;12.57;;
19414;SDS011;9843;48.882;12.592;2023-04-20T04:58:42;17.53;;;13.10;;
19414;SDS011;9843;48.882;12.592;2023-04-20T05:01:10;13.67;;;12.07;;
19414;SDS011;9843;48.882;12.592;2023-04-20T05:03:37;13.77;;;11.60;;
19414;SDS011;9843;48.882;12.592;2023-04-20T05:06:05;20.03;;;12.73;;
19414;SDS011;9843;48.882;12.592;2023-04-20T05:08:32;14.50;;;11.33;;
19414;SDS011;9843;48.882;12.592;2023-04-20T05:10:59;13.13;;;11.67;;
19414;SDS011;9843;48.882;12.592;2023-04-20T05:13:26;14.20;;;11.43;;
19414;SDS011;9843;48.882;12.592;2023-04-20T05:15:53;10.50;;;9.40;;
19414;SDS011;9843;48.882;12.592;2023-04-20T05:18:20;12.60;;;11.30;;
19414;SDS011;9843;48.882;12.592;2023-04-20T05:20:48;13.33;;;11.33;;
19414;SDS011;9843;48.882;12.592;2023-04-20T05:23:16;12.80;;;10.57;;
19414;SDS011;9843;48.882;12.592;2023-04-20T05:25:43;12.20;;;10.13;;
19414;SDS011;9843;48.882;12.592;2023-04-20T05:28:10;15.17;;;12.03;;
19414;SDS011;9843;48.882;12.592;2023-04-20T05:30:37;17.37;;;11.80;;
19414;SDS011;9843;48.882;12.592;2023-04-20T05:33:04;10.90;;;9.27;;
19414;SDS011;9843;48.882;12.592;2023-04-20T05:35:31;11.30;;;10.20;;
19414;SDS011;9843;48.882;12.592;2023-04-20T05:37:58;12.57;;;11.23;;
19414;SDS011;9843;48.882;12.592;2023-04-20T05:40:29;10.60;;;9.60;;
19414;SDS011;9843;48.882;12.592;2023-04-20T05:42:56;11.53;;;10.37;;
19414;SDS011;9843;48.882;12.592;2023-04-20T05:45:23;11.33;;;10.27;;
19414;SDS011;9843;48.882;12.592;2023-04-20T05:47:53;12.53;;;11.30;;
19414;SDS011;9843;48.882;12.592;2023-04-20T05:50:20;11.10;;;10.10;;
19414;SDS011;9843;48.882;12.592;2023-04-20T05:52:48;11.50;;;10.33;;
19414;SDS011;9843;48.882;12.592;2023-04-20T05:55:15;18.90;;;11.70;;
19414;SDS011;9843;48.882;12.592;2023-04-20T05:57:44;14.37;;;11.83;;
19414;SDS011;9843;48.882;12.592;2023-04-20T06:00:12;12.00;;;9.13;;
19414;SDS011;9843;48.882;12.592;2023-04-20T06:02:40;11.50;;;10.30;;
19414;SDS011;9843;48.882;12.592;2023-04-20T06:05:07;10.47;;;9.40;;
19414;SDS011;9843;48.882;12.592;2023-04-20T06:07:34;14.40;;;11.43;;
19414;SDS011;9843;48.882;12.592;2023-04-20T06:10:01;12.50;;;11.30;;
19414;SDS011;9843;48.882;12.592;2023-04-20T06:12:29;9.53;;;8.53;;
19414;SDS011;9843;48.882;12.592;2023-04-20T06:14:57;14.03;;;10.50;;
19414;SDS011;9843;48.882;12.592;2023-04-20T06:17:24;11.47;;;10.27;;
19414;SDS011;9843;48.882;12.592;2023-04-20T06:19:51;14.17;;;9.87;;
19414;SDS011;9843;48.882;12.592;2023-04-20T06:22:18;13.43;;;9.43;;
19414;SDS011;9843;48.882;12.592;2023-04-20T06:24:46;12.30;;;10.47;;
19414;SDS011;9843;48.882;12.592;2023-04-20T06:27:13;11.63;;;9.80;;
19414;SDS011;9843;48.882;12.592;2023-04-20T06:29:40;9.13;;;8.23;;
19414;SDS011;9843;48.882;12.592;2023-04-20T06:32:09;12.60;;;9.93;;
19414;SDS011;9843;48.882;12.592;2023-04-20T06:34:36;14.93;;;12.73;;
19414;SDS011;9843;48.882;12.592;2023-04-20T06:37:04;18.33;;;13.33;;
19414;SDS011;9843;48.882;12.592;2023-04-20T06:39:32;10.83;;;9.37;;
19414;SDS011;9843;48.882;12.592;2023-04-20T06:42:00;10.23;;;9.33;;
19414;SDS011;9843;48.882;12.592;2023-04-20T06:44:27;10.67;;;8.67;;
19414;SDS011;9843;48.882;12.592;2023-04-20T06:46:54;11.00;;;8.57;;
19414;SDS011;9843;48.882;12.592;2023-04-20T06:49:23;10.40;;;8.77;;
19414;SDS011;9843;48.882;12.592;2023-04-20T06:51:50;11.30;;;9.70;;
19414;SDS011;9843;48.882;12.592;2023-04-20T06:54:17;11.90;;;9.57;;
19414;SDS011;9843;48.882;12.592;2023-04-20T06:56:44;10.03;;;9.03;;
19414;SDS011;9843;48.882;12.592;2023-04-20T06:59:11;9.13;;;8.27;;
19414;SDS011;9843;48.882;12.592;2023-04-20T07:01:40;8.33;;;7.40;;
19414;SDS011;9843;48.882;12.592;2023-04-20T07:04:07;10.47;;;7.50;;
19414;SDS011;9843;48.882;12.592;2023-04-20T07:06:35;12.13;;;8.70;;
19414;SDS011;9843;48.882;12.592;2023-04-20T07:09:03;11.10;;;7.63;;
19414;SDS011;9843;48.882;12.592;2023-04-20T07:11:30;10.17;;;9.10;;
19414;SDS011;9843;48.882;12.592;2023-04-20T07:13:57;11.00;;;9.80;;
19414;SDS011;9843;48.882;12.592;2023-04-20T07:16:24;12.60;;;9.23;;
19414;SDS011;9843;48.882;12.592;2023-04-20T07:18:51;9.67;;;8.73;;
19414;SDS011;9843;48.882;12.592;2023-04-20T07:21:18;15.20;;;8.80;;
19414;SDS011;9843;48.882;12.592;2023-04-20T07:23:46;9.73;;;8.83;;
19414;SDS011;9843;48.882;12.592;2023-04-20T07:26:14;11.10;;;8.17;;
19414;SDS011;9843;48.882;12.592;2023-04-20T07:28:41;14.17;;;9.90;;
19414;SDS011;9843;48.882;12.592;2023-04-20T07:31:08;10.83;;;9.77;;
19414;SDS011;9843;48.882;12.592;2023-04-20T07:33:35;10.27;;;9.27;;
19414;SDS011;9843;48.882;12.592;2023-04-20T07:36:02;9.90;;;9.00;;
19414;SDS011;9843;48.882;12.592;2023-04-20T07:38:30;9.47;;;8.43;;
19414;SDS011;9843;48.882;12.592;2023-04-20T07:40:58;13.90;;;9.60;;
19414;SDS011;9843;48.882;12.592;2023-04-20T07:43:25;10.87;;;9.63;;
19414;SDS011;9843;48.882;12.592;2023-04-20T07:45:53;10.50;;;9.37;;
19414;SDS011;9843;48.882;12.592;2023-04-20T07:48:20;10.47;;;8.83;;
19414;SDS011;9843;48.882;12.592;2023-04-20T07:50:47;11.80;;;8.50;;
19414;SDS011;9843;48.882;12.592;2023-04-20T07:53:14;9.83;;;8.83;;
19414;SDS011;9843;48.882;12.592;2023-04-20T07:55:41;11.70;;;10.50;;
19414;SDS011;9843;48.882;12.592;2023-04-20T07:58:10;13.93;;;9.03;;
19414;SDS011;9843;48.882;12.592;2023-04-20T08:00:38;9.37;;;7.67;;
19414;SDS011;9843;48.882;12.592;2023-04-20T08:03:05;11.00;;;8.37;;
19414;SDS011;9843;48.882;12.592;2023-04-20T08:05:32;11.13;;;7.87;;
19414;SDS011;9843;48.882;12.592;2023-04-20T08:07:59;16.63;;;8.80;;
19414;SDS011;9843;48.882;12.592;2023-04-20T08:10:26;11.37;;;9.17;;
19414;SDS011;9843;48.882;12.592;2023-04-20T08:12:53;9.80;;;8.80;;
19414;SDS011;9843;48.882;12.592;2023-04-20T08:15:21;12.10;;;8.87;;
19414;SDS011;9843;48.882;12.592;2023-04-20T08:17:48;10.90;;;9.37;;
19414;SDS011;9843;48.882;12.592;2023-04-20T08:20:16;8.97;;;8.07;;
19414;SDS011;9843;48.882;12.592;2023-04-20T08:22:44;8.53;;;7.70;;
19414;SDS011;9843;48.882;12.592;2023-04-20T08:25:11;12.00;;;8.43;;
19414;SDS011;9843;48.882;12.592;2023-04-20T08:27:38;10.40;;;7.90;;
19414;SDS011;9843;48.882;12.592;2023-04-20T08:30:06;19.03;;;11.10;;
19414;SDS011;9843;48.882;12.592;2023-04-20T08:32:34;11.47;;;7.63;;
19414;SDS011;9843;48.882;12.592;2023-04-20T08:35:01;8.50;;;7.63;;
19414;SDS011;9843;48.882;12.592;2023-04-20T08:37:28;8.57;;;7.63;;
19414;SDS011;9843;48.882;12.592;2023-04-20T08:39:56;9.37;;;7.23;;
19414;SDS011;9843;48.882;12.592;2023-04-20T08:42:23;8.93;;;8.03;;
19414;SDS011;9843;48.882;12.592;2023-04-20T08:44:51;8.90;;;7.83;;
19414;SDS011;9843;48.882;12.592;2023-04-20T08:47:19;9.00;;;7.97;;
19414;SDS011;9843;48.882;12.592;2023-04-20T08:49:47;11.07;;;10.07;;
19414;SDS011;9843;48.882;12.592;2023-04-20T08:52:18;8.60;;;7.80;;
19414;SDS011;9843;48.882;12.592;2023-04-20T08:54:45;7.20;;;6.50;;
19414;SDS011;9843;48.882;12.592;2023-04-20T08:57:12;10.07;;;7.50;;
19414;SDS011;9843;48.882;12.592;2023-04-20T08:59:39;8.43;;;7.63;;
19414;SDS011;9843;48.882;12.592;2023-04-20T09:02:07;9.07;;;7.43;;
19414;SDS011;9843;48.882;12.592;2023-04-20T09:04:35;8.87;;;8.00;;
19414;SDS011;9843;48.882;12.592;2023-04-20T09:07:04;7.47;;;6.83;;
19414;SDS011;9843;48.882;12.592;2023-04-20T09:09:31;9.03;;;7.70;;
19414;SDS011;9843;48.882;12.592;2023-04-20T09:11:58;8.30;;;7.47;;
19414;SDS011;9843;48.882;12.592;2023-04-20T09:14:27;8.70;;;7.90;;
19414;SDS011;9843;48.882;12.592;2023-04-20T09:16:54;7.40;;;6.70;;
19414;SDS011;9843;48.882;12.592;2023-04-20T09:19:26;7.90;;;7.00;;
19414;SDS011;9843;48.882;12.592;2023-04-20T09:21:54;7.87;;;7.07;;
19414;SDS011;9843;48.882;12.592;2023-04-20T09:24:23;8.77;;;7.60;;
19414;SDS011;9843;48.882;12.592;2023-04-20T09:26:55;9.03;;;7.80;;
19414;SDS011;9843;48.882;12.592;2023-04-20T09:29:22;9.10;;;7.63;;
19414;SDS011;9843;48.882;12.592;2023-04-20T09:31:50;11.00;;;7.17;;
19414;SDS011;9843;48.882;12.592;2023-04-20T09:34:18;8.27;;;6.93;;
19414;SDS011;9843;48.882;12.592;2023-04-20T09:36:45;7.80;;;7.10;;
19414;SDS011;9843;48.882;12.592;2023-04-20T09:39:16;8.53;;;5.97;;
19414;SDS011;9843;48.882;12.592;2023-04-20T09:41:44;9.00;;;7.37;;
19414;SDS011;9843;48.882;12.592;2023-04-20T09:44:12;8.43;;;6.57;;
19414;SDS011;9843;48.882;12.592;2023-04-20T09:46:40;7.77;;;6.73;;
19414;SDS011;9843;48.882;12.592;2023-04-20T09:49:08;7.37;;;6.67;;
19414;SDS011;9843;48.882;12.592;2023-04-20T09:51:35;8.37;;;6.67;;
19414;SDS011;9843;48.882;12.592;2023-04-20T09:54:04;7.90;;;6.87;;
19414;SDS011;9843;48.882;12.592;2023-04-20T09:56:32;8.23;;;6.63;;
19414;SDS011;9843;48.882;12.592;2023-04-20T09:59:01;10.00;;;6.67;;
19414;SDS011;9843;48.882;12.592;2023-04-20T10:01:28;6.40;;;5.80;;
19414;SDS011;9843;48.882;12.592;2023-04-20T10:03:58;7.47;;;6.43;;
19414;SDS011;9843;48.882;12.592;2023-04-20T10:06:26;9.20;;;6.80;;
19414;SDS011;9843;48.882;12.592;2023-04-20T10:08:53;5.67;;;5.10;;
19414;SDS011;9843;48.882;12.592;2023-04-20T10:11:28;6.33;;;5.73;;
19414;SDS011;9843;48.882;12.592;2023-04-20T10:13:55;5.87;;;5.00;;
19414;SDS011;9843;48.882;12.592;2023-04-20T10:16:24;5.77;;;5.23;;
19414;SDS011;9843;48.882;12.592;2023-04-20T10:18:55;4.53;;;4.23;;
19414;SDS011;9843;48.882;12.592;2023-04-20T10:21:22;5.40;;;4.80;;
19414;SDS011;9843;48.882;12.592;2023-04-20T10:23:50;7.33;;;6.63;;
19414;SDS011;9843;48.882;12.592;2023-04-20T10:26:17;7.50;;;4.70;;
19414;SDS011;9843;48.882;12.592;2023-04-20T10:28:44;6.10;;;5.60;;
19414;SDS011;9843;48.882;12.592;2023-04-20T10:31:12;5.47;;;4.97;;
19414;SDS011;9843;48.882;12.592;2023-04-20T10:33:51;6.67;;;5.93;;
19414;SDS011;9843;48.882;12.592;2023-04-20T10:36:22;6.87;;;4.93;;
19414;SDS011;9843;48.882;12.592;2023-04-20T10:38:49;6.53;;;4.03;;
19414;SDS011;9843;48.882;12.592;2023-04-20T10:41:17;5.40;;;4.50;;
19414;SDS011;9843;48.882;12.592;2023-04-20T10:43:45;6.23;;;4.67;;
19414;SDS011;9843;48.882;12.592;2023-04-20T10:46:12;5.17;;;3.97;;
19414;SDS011;9843;48.882;12.592;2023-04-20T10:48:47;4.33;;;3.93;;
19414;SDS011;9843;48.882;12.592;2023-04-20T10:51:16;5.80;;;4.53;;
19414;SDS011;9843;48.882;12.592;2023-04-20T10:53:43;5.57;;;3.43;;
19414;SDS011;9843;48.882;12.592;2023-04-20T10:56:10;4.47;;;3.23;;
19414;SDS011;9843;48.882;12.592;2023-04-20T10:58:37;6.93;;;4.00;;
19414;SDS011;9843;48.882;12.592;2023-04-20T11:01:05;3.57;;;3.27;;
19414;SDS011;9843;48.882;12.592;2023-04-20T11:03:32;7.17;;;3.97;;
19414;SDS011;9843;48.882;12.592;2023-04-20T11:05:59;2.83;;;2.53;;
19414;SDS011;9843;48.882;12.592;2023-04-20T11:08:38;5.27;;;4.37;;
19414;SDS011;9843;48.882;12.592;2023-04-20T11:11:16;5.63;;;3.53;;
19414;SDS011;9843;48.882;12.592;2023-04-20T11:13:43;3.37;;;3.00;;
19414;SDS011;9843;48.882;12.592;2023-04-20T11:16:11;7.27;;;3.63;;
19414;SDS011;9843;48.882;12.592;2023-04-20T11:18:46;5.83;;;2.70;;
19414;SDS011;9843;48.882;12.592;2023-04-20T11:21:14;6.47;;;4.13;;
19414;SDS011;9843;48.882;12.592;2023-04-20T11:23:42;2.47;;;2.27;;
19414;SDS011;9843;48.882;12.592;2023-04-20T11:26:09;3.37;;;2.80;;
19414;SDS011;9843;48.882;12.592;2023-04-20T11:28:36;6.47;;;4.30;;
19414;SDS011;9843;48.882;12.592;2023-04-20T11:31:04;3.67;;;3.10;;
19414;SDS011;9843;48.882;12.592;2023-04-20T11:33:31;3.20;;;2.43;;
19414;SDS011;9843;48.882;12.592;2023-04-20T11:35:58;2.50;;;2.30;;
19414;SDS011;9843;48.882;12.592;2023-04-20T11:38:27;3.43;;;2.90;;
19414;SDS011;9843;48.882;12.592;2023-04-20T11:40:55;2.90;;;2.17;;
19414;SDS011;9843;48.882;12.592;2023-04-20T11:43:28;3.30;;;3.03;;
19414;SDS011;9843;48.882;12.592;2023-04-20T11:45:55;4.23;;;2.87;;
19414;SDS011;9843;48.882;12.592;2023-04-20T11:48:22;5.03;;;3.07;;
19414;SDS011;9843;48.882;12.592;2023-04-20T11:50:49;4.47;;;3.30;;
19414;SDS011;9843;48.882;12.592;2023-04-20T11:53:16;2.90;;;2.60;;
19414;SDS011;9843;48.882;12.592;2023-04-20T11:55:44;6.70;;;2.37;;
19414;SDS011;9843;48.882;12.592;2023-04-20T11:58:12;2.67;;;2.40;;
19414;SDS011;9843;48.882;12.592;2023-04-20T12:00:39;3.70;;;2.40;;
19414;SDS011;9843;48.882;12.592;2023-04-20T12:03:06;2.50;;;2.30;;
19414;SDS011;9843;48.882;12.592;2023-04-20T12:05:33;2.57;;;2.03;;
19414;SDS011;9843;48.882;12.592;2023-04-20T12:08:00;2.90;;;2.70;;
19414;SDS011;9843;48.882;12.592;2023-04-20T12:10:28;6.43;;;2.50;;
19414;SDS011;9843;48.882;12.592;2023-04-20T12:12:55;2.73;;;2.53;;
19414;SDS011;9843;48.882;12.592;2023-04-20T12:15:25;2.93;;;2.40;;
19414;SDS011;9843;48.882;12.592;2023-04-20T12:17:52;5.37;;;2.43;;
19414;SDS011;9843;48.882;12.592;2023-04-20T12:20:19;10.57;;;4.83;;
19414;SDS011;9843;48.882;12.592;2023-04-20T12:22:46;2.37;;;1.97;;
19414;SDS011;9843;48.882;12.592;2023-04-20T12:25:13;3.33;;;2.97;;
19414;SDS011;9843;48.882;12.592;2023-04-20T12:27:40;2.40;;;2.10;;
19414;SDS011;9843;48.882;12.592;2023-04-20T12:30:08;2.57;;;2.37;;
19414;SDS011;9843;48.882;12.592;2023-04-20T12:32:36;6.43;;;2.87;;
19414;SDS011;9843;48.882;12.592;2023-04-20T12:35:03;2.57;;;2.37;;
19414;SDS011;9843;48.882;12.592;2023-04-20T12:37:32;4.63;;;3.33;;
19414;SDS011;9843;48.882;12.592;2023-04-20T12:39:59;3.60;;;2.60;;
19414;SDS011;9843;48.882;12.592;2023-04-20T12:42:26;3.47;;;3.17;;
19414;SDS011;9843;48.882;12.592;2023-04-20T12:44:53;3.10;;;2.80;;
19414;SDS011;9843;48.882;12.592;2023-04-20T12:47:20;2.43;;;2.23;;
19414;SDS011;9843;48.882;12.592;2023-04-20T12:49:48;4.57;;;2.60;;
19414;SDS011;9843;48.882;12.592;2023-04-20T12:52:15;2.77;;;2.20;;
19414;SDS011;9843;48.882;12.592;2023-04-20T12:54:42;2.03;;;1.83;;
19414;SDS011;9843;48.882;12.592;2023-04-20T12:57:10;2.30;;;2.10;;
19414;SDS011;9843;48.882;12.592;2023-04-20T12:59:37;3.23;;;2.17;;
19414;SDS011;9843;48.882;12.592;2023-04-20T13:02:04;3.17;;;1.97;;
19414;SDS011;9843;48.882;12.592;2023-04-20T13:04:31;3.80;;;3.43;;
19414;SDS011;9843;48.882;12.592;2023-04-20T13:07:01;2.23;;;2.13;;
19414;SDS011;9843;48.882;12.592;2023-04-20T13:09:28;3.03;;;2.67;;
19414;SDS011;9843;48.882;12.592;2023-04-20T13:11:55;5.97;;;2.60;;
19414;SDS011;9843;48.882;12.592;2023-04-20T13:14:23;2.60;;;2.27;;
19414;SDS011;9843;48.882;12.592;2023-04-20T13:16:50;7.03;;;2.93;;
19414;SDS011;9843;48.882;12.592;2023-04-20T13:19:17;3.93;;;3.63;;
19414;SDS011;9843;48.882;12.592;2023-04-20T13:21:44;3.10;;;2.80;;
19414;SDS011;9843;48.882;12.592;2023-04-20T13:24:12;4.77;;;3.30;;
19414;SDS011;9843;48.882;12.592;2023-04-20T13:26:39;3.37;;;3.07;;
19414;SDS011;9843;48.882;12.592;2023-04-20T13:29:06;3.73;;;3.43;;
19414;SDS011;9843;48.882;12.592;2023-04-20T13:31:33;6.00;;;3.47;;
19414;SDS011;9843;48.882;12.592;2023-04-20T13:34:01;3.97;;;2.70;;
19414;SDS011;9843;48.882;12.592;2023-04-20T13:36:28;3.47;;;3.17;;
19414;SDS011;9843;48.882;12.592;2023-04-20T13:38:56;3.47;;;3.27;;
19414;SDS011;9843;48.882;12.592;2023-04-20T13:41:25;4.27;;;2.83;;
19414;SDS011;9843;48.882;12.592;2023-04-20T13:43:52;5.53;;;3.60;;
19414;SDS011;9843;48.882;12.592;2023-04-20T13:46:19;3.63;;;3.33;;
19414;SDS011;9843;48.882;12.592;2023-04-20T13:48:46;3.80;;;3.50;;
19414;SDS011;9843;48.882;12.592;2023-04-20T13:51:13;4.77;;;4.07;;
19414;SDS011;9843;48.882;12.592;2023-04-20T13:53:40;6.07;;;4.63;;
19414;SDS011;9843;48.882;12.592;2023-04-20T13:56:07;6.03;;;4.20;;
19414;SDS011;9843;48.882;12.592;2023-04-20T13:58:35;3.87;;;3.57;;
19414;SDS011;9843;48.882;12.592;2023-04-20T14:01:05;3.60;;;3.27;;
19414;SDS011;9843;48.882;12.592;2023-04-20T14:03:32;4.07;;;3.50;;
19414;SDS011;9843;48.882;12.592;2023-04-20T14:05:59;3.73;;;3.27;;
19414;SDS011;9843;48.882;12.592;2023-04-20T14:08:27;7.43;;;3.20;;
19414;SDS011;9843;48.882;12.592;2023-04-20T14:10:54;3.83;;;3.20;;
19414;SDS011;9843;48.882;12.592;2023-04-20T14:13:21;3.50;;;3.20;;
19414;SDS011;9843;48.882;12.592;2023-04-20T14:15:50;6.07;;;5.23;;
19414;SDS011;9843;48.882;12.592;2023-04-20T14:18:17;4.03;;;3.63;;
19414;SDS011;9843;48.882;12.592;2023-04-20T14:20:44;4.27;;;3.77;;
19414;SDS011;9843;48.882;12.592;2023-04-20T14:23:16;4.27;;;3.87;;
19414;SDS011;9843;48.882;12.592;2023-04-20T14:25:43;4.53;;;3.97;;
19414;SDS011;9843;48.882;12.592;2023-04-20T14:28:10;7.07;;;5.63;;
19414;SDS011;9843;48.882;12.592;2023-04-20T14:30:37;5.77;;;4.77;;
19414;SDS011;9843;48.882;12.592;2023-04-20T14:33:05;5.70;;;5.10;;
19414;SDS011;9843;48.882;12.592;2023-04-20T14:35:32;6.57;;;5.90;;
19414;SDS011;9843;48.882;12.592;2023-04-20T14:37:59;6.03;;;4.50;;